Time;durP1;ratioP1;P1;durP2;ratioP2;P2;SDS_P1;SDS_P2;PMS_P1;PMS_P2;Temp;Humidity;BMP_temperature;BMP_pressure;BME280_temperature;BME280_humidity;BME280_pressure;Samples;Min_cycle;Max_cycle;Signal;HPM_P1;HPM_P2
2022/09/26 00:01:36;;;;;;;5.10;4.90;;;;;;;;;;4944791;28;20047;-72
2022/09/26 00:04:05;;;;;;;4.88;4.68;;;;;;;;;;4947387;28;20043;-72
2022/09/26 00:06:31;;;;;;;4.95;4.75;;;;;;;;;;4947379;28;20054;-72
2022/09/26 00:08:57;;;;;;;5.00;4.80;;;;;;;;;;4945056;28;20039;-72
2022/09/26 00:11:26;;;;;;;5.00;4.80;;;;;;;;;;4945802;28;20456;-72
2022/09/26 00:13:55;;;;;;;5.15;4.95;;;;;;;;;;4947394;28;20053;-72
2022/09/26 00:16:21;;;;;;;5.00;4.80;;;;;;;;;;4948376;28;20047;-72
2022/09/26 00:18:52;;;;;;;5.10;4.90;;;;;;;;;;4951476;28;20054;-71
2022/09/26 00:21:19;;;;;;;4.80;4.60;;;;;;;;;;4987260;28;20560;-72
2022/09/26 00:23:45;;;;;;;5.10;4.90;;;;;;;;;;4987136;28;20584;-72
2022/09/26 00:26:13;;;;;;;4.70;4.50;;;;;;;;;;4987433;28;20084;-72
2022/09/26 00:28:39;;;;;;;4.60;4.40;;;;;;;;;;4987281;28;20030;-71
2022/09/26 00:31:07;;;;;;;4.95;4.75;;;;;;;;;;5002476;28;20042;-72
2022/09/26 00:33:34;;;;;;;4.53;4.33;;;;;;;;;;4986901;28;20052;-72
2022/09/26 00:36:00;;;;;;;4.97;4.78;;;;;;;;;;4987769;28;20101;-72
2022/09/26 00:38:25;;;;;;;4.88;4.68;;;;;;;;;;4991286;28;20030;-71
2022/09/26 00:40:51;;;;;;;4.90;4.70;;;;;;;;;;4991197;28;20034;-72
2022/09/26 00:43:38;;;;;;;4.75;4.55;;;;;;;;;;4995833;28;20072;-72
2022/09/26 00:46:08;;;;;;;4.60;4.40;;;;;;;;;;4987604;28;20027;-72
2022/09/26 00:48:35;;;;;;;4.97;4.78;;;;;;;;;;4991834;28;20060;-73
2022/09/26 00:51:02;;;;;;;4.80;4.60;;;;;;;;;;4990647;28;20035;-72
2022/09/26 00:53:34;;;;;;;4.97;4.78;;;;;;;;;;4990128;28;20048;-72
2022/09/26 00:56:06;;;;;;;4.60;4.40;;;;;;;;;;4986968;28;20038;-72
2022/09/26 00:58:37;;;;;;;5.13;4.93;;;;;;;;;;4986987;28;20065;-72
2022/09/26 01:01:03;;;;;;;5.10;4.90;;;;;;;;;;4990986;28;20042;-72
2022/09/26 01:03:30;;;;;;;4.97;4.78;;;;;;;;;;4988809;28;20041;-72
2022/09/26 01:05:59;;;;;;;5.15;4.95;;;;;;;;;;4992047;28;20504;-72
2022/09/26 01:08:31;;;;;;;5.30;5.10;;;;;;;;;;4995677;28;20763;-72
2022/09/26 01:10:58;;;;;;;4.85;4.65;;;;;;;;;;4992238;28;20663;-72
2022/09/26 01:13:25;;;;;;;5.07;4.88;;;;;;;;;;4988904;28;20390;-72
2022/09/26 01:15:51;;;;;;;4.72;4.53;;;;;;;;;;4990356;28;20030;-73
2022/09/26 01:18:17;;;;;;;4.95;4.75;;;;;;;;;;4989882;28;20438;-73
2022/09/26 01:21:03;;;;;;;5.25;4.95;;;;;;;;;;5006276;28;20045;-73
2022/09/26 01:23:58;;;;;;;4.80;4.60;;;;;;;;;;4988716;28;20034;-72
2022/09/26 01:26:42;;;;;;;4.65;4.45;;;;;;;;;;4936904;28;20035;-72
2022/09/26 01:29:19;;;;;;;4.97;4.78;;;;;;;;;;4988118;28;20034;-72
2022/09/26 01:35:21;;;;;;;4.70;4.50;;;;;;;;;;5005308;28;20034;-72
2022/09/26 01:37:58;;;;;;;5.10;4.90;;;;;;;;;;4989712;28;20053;-72
2022/09/26 01:40:32;;;;;;;4.60;4.40;;;;;;;;;;4989918;28;20038;-72
2022/09/26 01:42:58;;;;;;;4.60;4.40;;;;;;;;;;4986318;28;20041;-72
2022/09/26 01:45:45;;;;;;;4.68;4.47;;;;;;;;;;4975845;28;20042;-72
2022/09/26 01:48:19;;;;;;;4.97;4.78;;;;;;;;;;4987328;28;20096;-72
2022/09/26 01:51:01;;;;;;;4.90;4.70;;;;;;;;;;4990843;28;20591;-72
2022/09/26 01:53:31;;;;;;;4.97;4.78;;;;;;;;;;4990109;28;20442;-72
2022/09/26 01:56:11;;;;;;;5.03;4.82;;;;;;;;;;4989396;28;20945;-73
2022/09/26 01:58:59;;;;;;;4.80;4.60;;;;;;;;;;4992422;28;20049;-73
2022/09/26 02:01:30;;;;;;;4.80;4.60;;;;;;;;;;5004495;28;20041;-71
2022/09/26 02:04:00;;;;;;;4.60;4.40;;;;;;;;;;4990465;28;20033;-71
2022/09/26 02:06:30;;;;;;;4.70;4.50;;;;;;;;;;4986795;28;20041;-71
2022/09/26 02:08:57;;;;;;;4.88;4.68;;;;;;;;;;4989791;28;20125;-72
2022/09/26 02:11:24;;;;;;;4.55;4.35;;;;;;;;;;4987564;28;20052;-72
2022/09/26 02:14:21;;;;;;;4.80;4.60;;;;;;;;;;4988962;28;20042;-72
2022/09/26 02:16:50;;;;;;;4.70;4.50;;;;;;;;;;4985859;28;20102;-72
2022/09/26 02:19:20;;;;;;;5.13;4.93;;;;;;;;;;4991259;28;20050;-73
2022/09/26 02:21:46;;;;;;;4.75;4.55;;;;;;;;;;5005341;28;20121;-73
2022/09/26 02:24:12;;;;;;;4.80;4.60;;;;;;;;;;4988592;28;20038;-74
2022/09/26 02:26:38;;;;;;;4.80;4.60;;;;;;;;;;4989980;28;20052;-71
2022/09/26 02:29:05;;;;;;;4.40;4.20;;;;;;;;;;4989783;28;20026;-73
2022/09/26 02:31:35;;;;;;;4.80;4.60;;;;;;;;;;4989483;28;20058;-70
2022/09/26 02:34:02;;;;;;;4.82;4.63;;;;;;;;;;4991689;28;20511;-71
2022/09/26 02:36:32;;;;;;;4.80;4.60;;;;;;;;;;4989547;28;20072;-73
2022/09/26 02:38:59;;;;;;;4.80;4.60;;;;;;;;;;4990827;28;20520;-73
2022/09/26 02:42:16;;;;;;;4.72;4.53;;;;;;;;;;4966718;28;20433;-71
2022/09/26 02:44:50;;;;;;;5.10;4.90;;;;;;;;;;4991113;28;20382;-71
2022/09/26 02:47:43;;;;;;;5.40;5.20;;;;;;;;;;5009855;28;20394;-71
2022/09/26 02:50:34;;;;;;;5.10;4.90;;;;;;;;;;4988477;28;20485;-73
2022/09/26 02:53:47;;;;;;;5.20;5.00;;;;;;;;;;4984446;28;20474;-72
2022/09/26 02:56:55;;;;;;;5.00;4.80;;;;;;;;;;4910249;29;20088;-73
2022/09/26 02:59:39;;;;;;;5.03;4.82;;;;;;;;;;4926647;29;20504;-72
2022/09/26 03:02:05;;;;;;;4.78;4.57;;;;;;;;;;4910414;29;20027;-73
2022/09/26 03:04:49;;;;;;;4.82;4.63;;;;;;;;;;4906337;29;20072;-72
2022/09/26 03:07:32;;;;;;;5.53;5.32;;;;;;;;;;4908873;29;20158;-73
2022/09/26 03:10:02;;;;;;;5.10;4.90;;;;;;;;;;4911718;29;20044;-73
2022/09/26 03:12:30;;;;;;;5.35;5.15;;;;;;;;;;4909680;29;20518;-73
2022/09/26 03:14:58;;;;;;;5.00;4.80;;;;;;;;;;4926196;29;20598;-73
2022/09/26 03:17:25;;;;;;;5.25;5.05;;;;;;;;;;4911015;29;20548;-73
2022/09/26 03:19:58;;;;;;;5.25;5.05;;;;;;;;;;4911254;29;20043;-72
2022/09/26 03:22:24;;;;;;;5.10;4.90;;;;;;;;;;4910533;29;20044;-72
2022/09/26 03:24:50;;;;;;;5.10;4.90;;;;;;;;;;4925747;29;20047;-73
2022/09/26 03:27:16;;;;;;;4.90;4.70;;;;;;;;;;4911061;29;20048;-72
2022/09/26 03:29:44;;;;;;;4.53;4.32;;;;;;;;;;4912560;29;20040;-73
2022/09/26 03:32:16;;;;;;;5.10;4.90;;;;;;;;;;4931506;28;20474;-73
2022/09/26 03:34:42;;;;;;;4.65;4.45;;;;;;;;;;4988037;28;20065;-71
2022/09/26 03:37:07;;;;;;;4.57;4.38;;;;;;;;;;4988354;28;20042;-71
2022/09/26 03:39:33;;;;;;;5.22;5.03;;;;;;;;;;4987843;28;20046;-71
2022/09/26 03:42:06;;;;;;;4.60;4.40;;;;;;;;;;4986367;28;20033;-71
2022/09/26 03:44:32;;;;;;;5.10;4.90;;;;;;;;;;4971282;28;20538;-72
2022/09/26 03:47:30;;;;;;;4.88;4.68;;;;;;;;;;4987359;28;20128;-70
2022/09/26 03:49:56;;;;;;;5.00;4.80;;;;;;;;;;4986453;28;20486;-73
2022/09/26 03:52:23;;;;;;;5.10;4.90;;;;;;;;;;4984347;28;20038;-71
2022/09/26 03:54:49;;;;;;;5.18;4.97;;;;;;;;;;4986784;28;20034;-70
2022/09/26 03:57:16;;;;;;;4.85;4.65;;;;;;;;;;4989947;28;20030;-72
2022/09/26 03:59:49;;;;;;;5.32;5.13;;;;;;;;;;5003828;28;20046;-72
2022/09/26 04:02:16;;;;;;;5.05;4.85;;;;;;;;;;4985727;28;20034;-69
2022/09/26 04:04:45;;;;;;;;;;;;;;;;;;4988759;28;20038;-71
2022/09/26 04:07:13;;;;;;;5.25;5.05;;;;;;;;;;4988013;28;19920;-71
2022/09/26 04:09:39;;;;;;;5.22;5.03;;;;;;;;;;4985477;28;20046;-71
2022/09/26 04:12:06;;;;;;;5.30;5.10;;;;;;;;;;5002526;28;20042;-73
2022/09/26 04:14:34;;;;;;;5.75;5.47;;;;;;;;;;4986911;28;20106;-70
2022/09/26 04:17:00;;;;;;;5.30;5.10;;;;;;;;;;4987263;28;20415;-71
2022/09/26 04:19:30;;;;;;;5.10;4.90;;;;;;;;;;4984385;28;20034;-73
2022/09/26 04:21:57;;;;;;;5.40;5.20;;;;;;;;;;4989609;28;20045;-71
2022/09/26 04:24:23;;;;;;;5.43;5.22;;;;;;;;;;4989153;28;20034;-71
2022/09/26 04:26:49;;;;;;;5.10;4.90;;;;;;;;;;4981795;28;20513;-70
2022/09/26 04:29:15;;;;;;;5.53;5.32;;;;;;;;;;4989982;28;20125;-70
2022/09/26 04:32:04;;;;;;;5.20;5.00;;;;;;;;;;4965824;28;20046;-70
2022/09/26 04:34:40;;;;;;;5.60;5.40;;;;;;;;;;4989226;28;20409;-71
2022/09/26 04:37:09;;;;;;;5.38;5.18;;;;;;;;;;4983964;28;20050;-71
2022/09/26 04:39:34;;;;;;;5.40;5.20;;;;;;;;;;4986051;28;20158;-73
2022/09/26 04:42:00;;;;;;;5.25;5.05;;;;;;;;;;4987820;28;20051;-72
2022/09/26 04:44:26;;;;;;;5.35;5.15;;;;;;;;;;4980834;28;20157;-72
2022/09/26 04:46:52;;;;;;;5.22;5.03;;;;;;;;;;4988578;28;20046;-73
2022/09/26 04:49:22;;;;;;;5.00;4.80;;;;;;;;;;4985288;28;20038;-70
2022/09/26 04:51:48;;;;;;;5.22;5.03;;;;;;;;;;4986977;28;20092;-73
2022/09/26 04:54:15;;;;;;;5.40;5.20;;;;;;;;;;4984113;28;20042;-73
2022/09/26 04:56:41;;;;;;;5.47;5.28;;;;;;;;;;4984833;28;20073;-72
2022/09/26 04:59:08;;;;;;;5.30;5.10;;;;;;;;;;4990896;28;20065;-71
2022/09/26 05:01:56;;;;;;;5.83;5.53;;;;;;;;;;4989198;28;20451;-70
2022/09/26 05:04:32;;;;;;;5.50;5.30;;;;;;;;;;4986380;28;20045;-69
2022/09/26 05:06:58;;;;;;;6.10;5.80;;;;;;;;;;4988964;28;20122;-69
2022/09/26 05:09:27;;;;;;;5.47;5.28;;;;;;;;;;4985267;28;20486;-69
2022/09/26 05:12:00;;;;;;;5.93;5.63;;;;;;;;;;4986342;28;20038;-69
2022/09/26 05:14:26;;;;;;;5.60;5.40;;;;;;;;;;4984487;28;20533;-69
2022/09/26 05:16:52;;;;;;;5.57;5.38;;;;;;;;;;4985549;28;20030;-71
2022/09/26 05:19:20;;;;;;;5.72;5.45;;;;;;;;;;4986368;28;20034;-72
2022/09/26 05:22:09;;;;;;;5.50;5.30;;;;;;;;;;4989624;28;20056;-71
2022/09/26 05:27:20;;;;;;;5.38;5.18;;;;;;;;;;4991390;28;20034;-69
2022/09/26 05:29:45;;;;;;;5.32;5.13;;;;;;;;;;4987854;28;20109;-71
2022/09/26 05:32:12;;;;;;;5.60;5.40;;;;;;;;;;4966118;28;20251;-69
2022/09/26 05:34:38;;;;;;;5.60;5.40;;;;;;;;;;4990550;28;20049;-71
2022/09/26 05:37:05;;;;;;;5.85;5.55;;;;;;;;;;4989311;28;20065;-71
2022/09/26 05:42:16;;;;;;;6.10;5.80;;;;;;;;;;5002316;28;20034;-71
2022/09/26 05:44:42;;;;;;;6.03;5.72;;;;;;;;;;4987509;28;20045;-71
2022/09/26 05:47:08;;;;;;;6.00;5.70;;;;;;;;;;4991038;28;20030;-71
2022/09/26 05:49:35;;;;;;;5.85;5.55;;;;;;;;;;4988930;28;20548;-71
2022/09/26 05:52:02;;;;;;;6.00;5.70;;;;;;;;;;4987857;28;20026;-71
2022/09/26 05:54:28;;;;;;;5.90;5.60;;;;;;;;;;4989349;28;20069;-71
2022/09/26 05:56:55;;;;;;;5.93;5.63;;;;;;;;;;4987996;28;20034;-70
2022/09/26 05:59:26;;;;;;;6.20;5.90;;;;;;;;;;4988360;28;20124;-70
2022/09/26 06:02:20;;;;;;;6.13;5.82;;;;;;;;;;4992683;28;20042;-70
2022/09/26 06:05:13;;;;;;;6.20;5.90;;;;;;;;;;4985696;28;20494;-71
2022/09/26 06:07:41;;;;;;;6.40;6.10;;;;;;;;;;4991898;28;20082;-70
2022/09/26 06:10:12;;;;;;;6.50;6.20;;;;;;;;;;4988988;28;20659;-71
2022/09/26 06:12:52;;;;;;;6.40;6.10;;;;;;;;;;4999517;28;20044;-71
2022/09/26 06:15:18;;;;;;;6.18;5.88;;;;;;;;;;4992449;28;20034;-72
2022/09/26 06:17:46;;;;;;;6.20;5.90;;;;;;;;;;4987698;28;20030;-71
2022/09/26 06:20:12;;;;;;;6.22;5.93;;;;;;;;;;4986723;28;20836;-71
2022/09/26 06:22:42;;;;;;;5.78;5.47;;;;;;;;;;4989690;28;20483;-70
2022/09/26 06:25:09;;;;;;;5.90;5.60;;;;;;;;;;4988872;28;20065;-71
2022/09/26 06:27:37;;;;;;;6.13;5.82;;;;;;;;;;4972868;28;20050;-70
2022/09/26 06:30:06;;;;;;;5.50;5.30;;;;;;;;;;4989287;28;20022;-70
2022/09/26 06:32:33;;;;;;;5.85;5.55;;;;;;;;;;4989181;28;20104;-69
2022/09/26 06:35:16;;;;;;;5.90;5.60;;;;;;;;;;4994171;28;20040;-70
2022/09/26 06:38:03;;;;;;;6.07;5.78;;;;;;;;;;4986983;28;20030;-71
2022/09/26 06:40:31;;;;;;;6.20;5.90;;;;;;;;;;5003064;28;20057;-71
2022/09/26 06:42:59;;;;;;;6.15;5.85;;;;;;;;;;4989036;28;20181;-72
2022/09/26 06:45:35;;;;;;;5.80;5.50;;;;;;;;;;4989773;28;20037;-71
2022/09/26 06:48:08;;;;;;;6.00;5.70;;;;;;;;;;4983780;28;20042;-71
2022/09/26 06:50:55;;;;;;;5.65;5.38;;;;;;;;;;4988268;28;20060;-70
2022/09/26 06:53:23;;;;;;;5.82;5.53;;;;;;;;;;4989685;28;20504;-70
2022/09/26 06:55:49;;;;;;;5.20;5.00;;;;;;;;;;4988589;28;20038;-71
2022/09/26 06:58:16;;;;;;;5.40;5.20;;;;;;;;;;4973122;28;20062;-72
2022/09/26 07:00:55;;;;;;;5.82;5.53;;;;;;;;;;5002975;28;20038;-71
2022/09/26 07:03:47;;;;;;;5.57;5.38;;;;;;;;;;4972130;28;20050;-71
2022/09/26 07:06:26;;;;;;;5.28;5.07;;;;;;;;;;4988878;28;20608;-71
2022/09/26 07:08:54;;;;;;;5.55;5.35;;;;;;;;;;4972000;28;20104;-71
2022/09/26 07:11:37;;;;;;;6.10;5.80;;;;;;;;;;4973968;28;20113;-72
2022/09/26 07:14:04;;;;;;;5.90;5.60;;;;;;;;;;4969349;28;20045;-72
2022/09/26 07:16:30;;;;;;;5.50;5.30;;;;;;;;;;4969873;28;20046;-72
2022/09/26 07:19:02;;;;;;;5.47;5.28;;;;;;;;;;4973311;28;20034;-71
2022/09/26 07:21:34;;;;;;;5.70;5.45;;;;;;;;;;4985718;28;20413;-71
2022/09/26 07:24:13;;;;;;;5.65;5.45;;;;;;;;;;4990008;28;20041;-71
2022/09/26 07:26:41;;;;;;;6.00;5.70;;;;;;;;;;4986695;28;20022;-71
2022/09/26 07:29:08;;;;;;;5.65;5.43;;;;;;;;;;4972589;28;20521;-71
2022/09/26 07:31:33;;;;;;;5.90;5.60;;;;;;;;;;4999322;28;20102;-71
2022/09/26 07:34:07;;;;;;;6.03;5.72;;;;;;;;;;4992962;28;20057;-72
2022/09/26 07:36:35;;;;;;;6.18;5.88;;;;;;;;;;4955226;28;20039;-71
2022/09/26 07:39:01;;;;;;;5.60;5.38;;;;;;;;;;4968239;28;20027;-70
2022/09/26 07:41:29;;;;;;;5.93;5.63;;;;;;;;;;4967777;28;20097;-70
2022/09/26 07:43:56;;;;;;;5.63;5.38;;;;;;;;;;4969884;28;20031;-71
2022/09/26 07:51:59;;;;;;;5.88;5.57;;;;;;;;;;4975158;28;20045;-71
2022/09/26 07:54:41;;;;;;;5.90;5.60;;;;;;;;;;4983083;28;20070;-71
2022/09/26 07:57:34;;;;;;;5.88;5.57;;;;;;;;;;4956114;28;20410;-71
2022/09/26 08:00:20;;;;;;;6.07;5.78;;;;;;;;;;4968866;28;20160;-71
2022/09/26 08:03:03;;;;;;;6.20;5.90;;;;;;;;;;4960838;28;20058;-71
2022/09/26 08:05:30;;;;;;;6.03;5.72;;;;;;;;;;4984154;28;20042;-71
2022/09/26 08:07:56;;;;;;;6.07;5.78;;;;;;;;;;4965235;28;20221;-71
2022/09/26 08:10:57;;;;;;;5.93;5.63;;;;;;;;;;4982143;28;20514;-71
2022/09/26 08:13:43;;;;;;;5.38;5.18;;;;;;;;;;4968983;28;20054;-70
2022/09/26 08:16:28;;;;;;;5.32;5.13;;;;;;;;;;4967446;28;20038;-71
2022/09/26 08:18:57;;;;;;;5.22;5.03;;;;;;;;;;4967623;28;20046;-71
2022/09/26 08:21:24;;;;;;;5.57;5.38;;;;;;;;;;4952565;28;20108;-71
2022/09/26 08:23:54;;;;;;;6.00;5.70;;;;;;;;;;4964579;28;20038;-70
2022/09/26 08:26:27;;;;;;;5.80;5.50;;;;;;;;;;4969537;28;20054;-71
2022/09/26 08:28:58;;;;;;;5.70;5.40;;;;;;;;;;4969564;28;20046;-71
2022/09/26 08:31:25;;;;;;;5.90;5.60;;;;;;;;;;4967968;28;20114;-71
2022/09/26 08:33:51;;;;;;;5.80;5.50;;;;;;;;;;4968526;28;20039;-70
2022/09/26 08:36:17;;;;;;;5.55;5.35;;;;;;;;;;4968854;28;20436;-72
2022/09/26 08:38:51;;;;;;;5.93;5.63;;;;;;;;;;4973281;28;20548;-71
2022/09/26 08:41:48;;;;;;;6.20;5.90;;;;;;;;;;4952658;28;20043;-73
2022/09/26 08:46:08;;;;;;;6.10;5.80;;;;;;;;;;4969246;28;20127;-72
2022/09/26 08:48:20;;;;;;;6.00;5.70;;;;;;;;;;4969870;28;20063;-71
2022/09/26 08:51:19;;;;;;;6.50;6.20;;;;;;;;;;4965471;28;20491;-71
2022/09/26 08:53:54;;;;;;;6.43;6.13;;;;;;;;;;4970112;28;20027;-71
2022/09/26 08:56:27;;;;;;;6.35;6.05;;;;;;;;;;4969033;28;20069;-71
2022/09/26 08:58:54;;;;;;;6.28;5.97;;;;;;;;;;4983460;28;20038;-70
2022/09/26 09:01:28;;;;;;;6.30;6.00;;;;;;;;;;4988641;28;20085;-71
2022/09/26 09:04:20;;;;;;;5.50;5.30;;;;;;;;;;4972912;28;20031;-71
2022/09/26 09:06:46;;;;;;;5.53;5.32;;;;;;;;;;4985751;28;20093;-71
2022/09/26 09:09:15;;;;;;;5.47;5.28;;;;;;;;;;4970914;28;20666;-70
2022/09/26 09:12:20;;;;;;;5.15;4.95;;;;;;;;;;4972366;28;20089;-71
2022/09/26 09:15:15;;;;;;;4.72;4.53;;;;;;;;;;4970724;28;20509;-71
2022/09/26 09:18:11;;;;;;;5.40;5.20;;;;;;;;;;4982845;28;20395;-70
2022/09/26 09:21:22;;;;;;;4.90;4.70;;;;;;;;;;4963608;28;20047;-71
2022/09/26 09:24:38;;;;;;;5.20;5.00;;;;;;;;;;4979534;28;20046;-70
2022/09/26 09:27:10;;;;;;;4.70;4.50;;;;;;;;;;4973209;28;20047;-71
2022/09/26 09:29:43;;;;;;;5.50;5.30;;;;;;;;;;4988234;28;20070;-71
2022/09/26 09:32:53;;;;;;;5.22;5.03;;;;;;;;;;4953625;28;20050;-72
2022/09/26 09:35:44;;;;;;;6.40;6.10;;;;;;;;;;4972764;28;20031;-72
2022/09/26 09:38:32;;;;;;;;;;;;;;;;;;4966911;28;20046;-72
2022/09/26 09:41:17;;;;;;;5.43;5.22;;;;;;;;;;4956036;28;20326;-72
2022/09/26 09:43:53;;;;;;;6.70;6.40;;;;;;;;;;4985078;28;20046;-72
2022/09/26 09:46:27;;;;;;;4.97;4.78;;;;;;;;;;4970666;28;20050;-70
2022/09/26 09:49:08;;;;;;;5.00;4.80;;;;;;;;;;4973705;28;20129;-70
2022/09/26 09:52:02;;;;;;;5.00;4.80;;;;;;;;;;4968941;28;20126;-71
2022/09/26 09:54:59;;;;;;;6.00;5.70;;;;;;;;;;4970363;28;20027;-71
2022/09/26 09:57:46;;;;;;;6.45;6.15;;;;;;;;;;4969109;28;20046;-72
2022/09/26 10:00:17;;;;;;;6.20;5.90;;;;;;;;;;4968309;28;20027;-72
2022/09/26 10:03:21;;;;;;;6.43;5.70;;;;;;;;;;4970611;28;20118;-71
2022/09/26 10:05:52;;;;;;;6.25;5.95;;;;;;;;;;4975767;28;20070;-72
2022/09/26 10:08:30;;;;;;;6.60;6.30;;;;;;;;;;4970188;28;20034;-71
2022/09/26 10:11:40;;;;;;;6.00;5.70;;;;;;;;;;4931175;29;20094;-70
2022/09/26 10:14:41;;;;;;;6.47;6.18;;;;;;;;;;4937177;29;20031;-71
2022/09/26 10:17:09;;;;;;;5.82;5.53;;;;;;;;;;4929945;29;20047;-73
2022/09/26 10:19:56;;;;;;;5.40;5.20;;;;;;;;;;4932454;29;20055;-71
2022/09/26 10:22:42;;;;;;;5.47;5.28;;;;;;;;;;4918025;29;20051;-72
2022/09/26 10:25:24;;;;;;;4.90;4.70;;;;;;;;;;4917790;29;20043;-70
2022/09/26 10:27:55;;;;;;;5.40;5.20;;;;;;;;;;4912472;29;20365;-70
2022/09/26 10:30:32;;;;;;;5.40;5.20;;;;;;;;;;4898138;29;20048;-70
2022/09/26 10:33:23;;;;;;;6.00;5.70;;;;;;;;;;4932030;29;20035;-71
2022/09/26 10:35:52;;;;;;;5.90;5.60;;;;;;;;;;4931578;29;20062;-71
2022/09/26 10:38:26;;;;;;;6.38;6.07;;;;;;;;;;4914201;29;20052;-71
2022/09/26 10:41:24;;;;;;;6.50;6.20;;;;;;;;;;4931633;28;20039;-71
2022/09/26 10:43:54;;;;;;;6.20;5.90;;;;;;;;;;4986512;28;20038;-72
2022/09/26 10:46:44;;;;;;;6.20;5.90;;;;;;;;;;4967624;28;20462;-71
2022/09/26 10:49:38;;;;;;;6.20;5.90;;;;;;;;;;4971237;28;20038;-71
2022/09/26 10:52:45;;;;;;;5.05;4.85;;;;;;;;;;4947251;28;20043;-71
2022/09/26 10:55:25;;;;;;;6.15;5.85;;;;;;;;;;4969217;28;20048;-70
2022/09/26 10:57:57;;;;;;;6.72;6.43;;;;;;;;;;4967993;28;20054;-70
2022/09/26 11:00:36;;;;;;;6.00;5.70;;;;;;;;;;4989662;28;20039;-68
2022/09/26 11:03:08;;;;;;;5.75;5.47;;;;;;;;;;4985704;28;20046;-68
2022/09/26 11:05:57;;;;;;;5.97;5.68;;;;;;;;;;4972482;28;20042;-70
2022/09/26 11:08:37;;;;;;;6.00;5.70;;;;;;;;;;4970908;28;20069;-71
2022/09/26 11:11:50;;;;;;;6.05;5.75;;;;;;;;;;4946060;29;20085;-71
2022/09/26 11:15:09;;;;;;;6.35;6.05;;;;;;;;;;4918523;29;20058;-70
2022/09/26 11:17:48;;;;;;;6.47;6.18;;;;;;;;;;4915710;28;20071;-69
2022/09/26 11:20:50;;;;;;;7.05;6.75;;;;;;;;;;4929311;29;20059;-70
2022/09/26 11:23:23;;;;;;;6.57;6.28;;;;;;;;;;4931653;29;20094;-70
2022/09/26 11:26:09;;;;;;;6.40;6.10;;;;;;;;;;4946040;29;20107;-71
2022/09/26 11:28:44;;;;;;;6.55;6.25;;;;;;;;;;4917663;29;20047;-70
2022/09/26 11:31:26;;;;;;;6.00;5.70;;;;;;;;;;4929352;29;20086;-71
2022/09/26 11:34:15;;;;;;;5.85;5.55;;;;;;;;;;4949069;29;20125;-70
2022/09/26 11:37:08;;;;;;;5.60;5.38;;;;;;;;;;4912289;29;20055;-70
2022/09/26 11:39:42;;;;;;;5.50;5.30;;;;;;;;;;4926922;29;20774;-69
2022/09/26 11:42:21;;;;;;;6.35;6.05;;;;;;;;;;4938660;28;20089;-69
2022/09/26 11:44:54;;;;;;;6.28;5.97;;;;;;;;;;4983165;28;20173;-70
2022/09/26 11:48:07;;;;;;;5.75;5.45;;;;;;;;;;4971884;28;20054;-70
2022/09/26 11:51:03;;;;;;;6.20;5.90;;;;;;;;;;4981502;28;20548;-70
2022/09/26 11:53:55;;;;;;;5.95;5.65;;;;;;;;;;4967716;28;20093;-70
2022/09/26 11:56:50;;;;;;;5.90;5.60;;;;;;;;;;4964041;28;20130;-70
2022/09/26 11:59:49;;;;;;;6.72;6.43;;;;;;;;;;4968397;28;20035;-70
2022/09/26 12:02:54;;;;;;;6.80;6.50;;;;;;;;;;4947408;28;20038;-71
2022/09/26 12:05:29;;;;;;;6.70;6.40;;;;;;;;;;4967832;28;20047;-70
2022/09/26 12:08:13;;;;;;;6.35;6.05;;;;;;;;;;4969080;28;20050;-71
2022/09/26 12:10:44;;;;;;;6.30;6.00;;;;;;;;;;4949523;28;20065;-71
2022/09/26 12:13:33;;;;;;;6.30;6.00;;;;;;;;;;4966347;28;20056;-71
2022/09/26 12:16:36;;;;;;;6.35;6.05;;;;;;;;;;4968499;28;20043;-71
2022/09/26 12:19:25;;;;;;;7.32;6.93;;;;;;;;;;4950466;28;20141;-71
2022/09/26 12:25:34;;;;;;;6.45;6.15;;;;;;;;;;4969035;28;20129;-71
2022/09/26 12:28:29;;;;;;;7.10;6.80;;;;;;;;;;4968731;28;20042;-70
2022/09/26 12:31:04;;;;;;;6.95;6.65;;;;;;;;;;4968178;28;20047;-71
2022/09/26 12:33:42;;;;;;;6.70;6.40;;;;;;;;;;4971181;28;20030;-70
2022/09/26 12:36:46;;;;;;;6.88;6.57;;;;;;;;;;4970443;28;20517;-70
2022/09/26 12:39:34;;;;;;;6.95;6.65;;;;;;;;;;4969609;28;20034;-69
2022/09/26 12:42:12;;;;;;;6.93;6.63;;;;;;;;;;4973014;28;20050;-70
2022/09/26 12:45:16;;;;;;;7.00;6.70;;;;;;;;;;4972260;28;20328;-70
2022/09/26 12:48:13;;;;;;;6.45;6.15;;;;;;;;;;4972795;28;20034;-72
2022/09/26 12:51:14;;;;;;;6.07;5.78;;;;;;;;;;4952366;28;20536;-71
2022/09/26 12:54:11;;;;;;;6.10;5.80;;;;;;;;;;4970452;28;20045;-72
2022/09/26 12:57:08;;;;;;;6.15;5.85;;;;;;;;;;4940165;28;20506;-70
2022/09/26 12:59:52;;;;;;;6.30;6.00;;;;;;;;;;4969657;28;20050;-71
2022/09/26 13:02:18;;;;;;;6.40;6.10;;;;;;;;;;4969693;28;20050;-70
2022/09/26 13:05:21;;;;;;;6.05;5.75;;;;;;;;;;4972412;28;20043;-71
2022/09/26 13:08:07;;;;;;;5.88;5.57;;;;;;;;;;4968462;28;20043;-70
2022/09/26 13:10:47;;;;;;;6.50;6.20;;;;;;;;;;4964218;28;20038;-71
2022/09/26 13:13:38;;;;;;;6.68;6.38;;;;;;;;;;4936904;28;20043;-70
2022/09/26 13:16:24;;;;;;;6.50;6.20;;;;;;;;;;4967667;28;20043;-70
2022/09/26 13:18:59;;;;;;;6.00;5.70;;;;;;;;;;4968800;28;20054;-70
2022/09/26 13:21:42;;;;;;;6.10;5.80;;;;;;;;;;4968095;28;20617;-69
2022/09/26 13:24:17;;;;;;;6.32;6.03;;;;;;;;;;4965009;28;20402;-70
2022/09/26 13:26:48;;;;;;;6.13;5.82;;;;;;;;;;4964480;28;20045;-69
2022/09/26 13:29:22;;;;;;;6.00;5.70;;;;;;;;;;4967292;28;20041;-70
2022/09/26 13:32:17;;;;;;;6.50;6.20;;;;;;;;;;4969990;28;20477;-70
2022/09/26 13:34:59;;;;;;;6.10;5.80;;;;;;;;;;4966169;28;20057;-70
2022/09/26 13:37:45;;;;;;;5.82;5.53;;;;;;;;;;4964009;28;20043;-70
2022/09/26 13:40:53;;;;;;;6.00;5.70;;;;;;;;;;4961312;28;20126;-70
2022/09/26 13:43:42;;;;;;;6.00;5.70;;;;;;;;;;4945803;28;20055;-70
2022/09/26 13:46:14;;;;;;;;;;;;;;;;;;4967186;28;20038;-70
2022/09/26 13:48:59;;;;;;;6.20;5.90;;;;;;;;;;4965977;28;20013;-70
2022/09/26 13:51:36;;;;;;;5.90;5.60;;;;;;;;;;4964586;28;20097;-70
2022/09/26 13:54:22;;;;;;;6.90;6.60;;;;;;;;;;4967012;28;20070;-70
2022/09/26 13:56:49;;;;;;;6.80;6.50;;;;;;;;;;4969033;28;20062;-70
2022/09/26 13:59:16;;;;;;;6.30;6.00;;;;;;;;;;4947930;28;20134;-70
2022/09/26 14:02:14;;;;;;;6.50;6.20;;;;;;;;;;4965424;28;20128;-70
2022/09/26 14:04:40;;;;;;;6.50;6.20;;;;;;;;;;4966255;28;20062;-69
2022/09/26 14:10:00;;;;;;;6.60;6.30;;;;;;;;;;4968561;28;20623;-69
2022/09/26 14:13:00;;;;;;;6.10;5.80;;;;;;;;;;4967770;28;20743;-69
2022/09/26 14:15:47;;;;;;;6.43;6.13;;;;;;;;;;4968475;28;20030;-71
2022/09/26 14:18:41;;;;;;;6.47;6.18;;;;;;;;;;4967429;28;20045;-69
2022/09/26 14:21:13;;;;;;;6.25;5.95;;;;;;;;;;4963090;28;20045;-71
2022/09/26 14:23:47;;;;;;;6.00;5.70;;;;;;;;;;4969142;28;20048;-71
2022/09/26 14:26:19;;;;;;;6.70;6.40;;;;;;;;;;4967410;28;20105;-71
2022/09/26 14:28:51;;;;;;;5.90;5.60;;;;;;;;;;4969735;28;20062;-72
2022/09/26 14:31:36;;;;;;;6.50;6.20;;;;;;;;;;4968553;28;20034;-70
2022/09/26 14:34:24;;;;;;;6.15;5.85;;;;;;;;;;4969158;28;20039;-69
2022/09/26 14:36:52;;;;;;;5.90;5.60;;;;;;;;;;4981710;28;20038;-69
2022/09/26 14:39:26;;;;;;;6.00;5.70;;;;;;;;;;4967574;28;20049;-70
2022/09/26 14:41:53;;;;;;;6.07;5.78;;;;;;;;;;4967379;28;20066;-70
2022/09/26 14:44:21;;;;;;;6.10;5.80;;;;;;;;;;4965788;28;20092;-70
2022/09/26 14:46:52;;;;;;;6.22;5.93;;;;;;;;;;4967102;28;20042;-70
2022/09/26 14:49:25;;;;;;;6.13;5.82;;;;;;;;;;4967672;28;20038;-69
2022/09/26 14:51:59;;;;;;;5.90;5.60;;;;;;;;;;4964031;28;20062;-69
2022/09/26 14:54:33;;;;;;;6.10;5.80;;;;;;;;;;4966886;28;20072;-69
2022/09/26 14:57:04;;;;;;;6.25;5.95;;;;;;;;;;4966519;28;20038;-69
2022/09/26 14:59:33;;;;;;;5.97;5.68;;;;;;;;;;4966836;28;20034;-69
2022/09/26 15:02:14;;;;;;;6.45;6.15;;;;;;;;;;4967537;28;20093;-69
2022/09/26 15:04:41;;;;;;;6.15;5.85;;;;;;;;;;4969348;28;20402;-69
2022/09/26 15:07:35;;;;;;;6.07;5.78;;;;;;;;;;4971048;28;20042;-69
2022/09/26 15:10:19;;;;;;;6.53;6.22;;;;;;;;;;4964012;28;20398;-69
2022/09/26 15:12:51;;;;;;;6.32;6.03;;;;;;;;;;4968916;28;20031;-70
2022/09/26 15:15:58;;;;;;;6.30;6.00;;;;;;;;;;4967834;28;20092;-70
2022/09/26 15:18:33;;;;;;;5.88;5.57;;;;;;;;;;4962489;28;20047;-69
2022/09/26 15:21:11;;;;;;;6.05;5.75;;;;;;;;;;4967940;28;20085;-69
2022/09/26 15:23:48;;;;;;;5.95;5.65;;;;;;;;;;4966533;28;20042;-69
2022/09/26 15:26:17;;;;;;;5.90;5.60;;;;;;;;;;4964746;28;20031;-69
2022/09/26 15:28:43;;;;;;;;;;;;;;;;;;4973053;28;20121;-69
2022/09/26 15:31:39;;;;;;;6.40;6.10;;;;;;;;;;4968577;28;20362;-69
2022/09/26 15:34:08;;;;;;;6.00;5.70;;;;;;;;;;4963347;28;20047;-69
2022/09/26 15:36:35;;;;;;;6.35;6.05;;;;;;;;;;4966238;28;20434;-69
2022/09/26 15:39:27;;;;;;;6.70;6.40;;;;;;;;;;4969387;28;20073;-69
2022/09/26 15:44:46;;;;;;;6.82;6.53;;;;;;;;;;4966347;28;20046;-69
2022/09/26 15:47:40;;;;;;;6.63;6.32;;;;;;;;;;4966801;28;20039;-69
2022/09/26 15:50:11;;;;;;;6.75;6.45;;;;;;;;;;4963670;28;20078;-68
2022/09/26 15:52:41;;;;;;;6.60;6.30;;;;;;;;;;4966646;28;20080;-69
2022/09/26 15:55:16;;;;;;;6.75;6.45;;;;;;;;;;4968155;28;20027;-69
2022/09/26 15:57:43;;;;;;;6.30;6.00;;;;;;;;;;4963782;28;20049;-69
2022/09/26 16:00:12;;;;;;;7.05;6.75;;;;;;;;;;4964532;28;20030;-69
2022/09/26 16:02:38;;;;;;;6.55;6.25;;;;;;;;;;4962446;28;20070;-69
2022/09/26 16:05:07;;;;;;;6.22;5.93;;;;;;;;;;4965035;28;20081;-69
2022/09/26 16:07:33;;;;;;;6.57;6.28;;;;;;;;;;4965609;28;20038;-69